Time;durP1;ratioP1;P1;durP2;ratioP2;P2;SDS_P1;SDS_P2;PMS_P1;PMS_P2;Temp;Humidity;BMP_temperature;BMP_pressure;BME280_temperature;BME280_humidity;BME280_pressure;Samples;Min_cycle;Max_cycle;Signal;HPM_P1;HPM_P2
2021/06/14 00:05:35;;;;;;;7.57;3.38;;;21.30;55.80;;;;;;20747104;28;20037;-20
2021/06/14 00:15:37;;;;;;;5.55;2.60;;;21.30;55.80;;;;;;20743542;28;20037;-20
2021/06/14 00:25:38;;;;;;;5.03;2.47;;;21.20;55.80;;;;;;20741842;28;20025;-20
2021/06/14 00:35:40;;;;;;;7.32;3.15;;;21.20;55.70;;;;;;20741577;28;20117;-20
2021/06/14 00:45:46;;;;;;;3.85;2.65;;;21.20;55.70;;;;;;20757302;28;20147;-20
2021/06/14 00:55:47;;;;;;;3.78;2.33;;;21.20;55.50;;;;;;20784141;23;20560;-20
2021/06/14 01:05:51;;;;;;;5.50;2.78;;;21.10;55.40;;;;;;20853613;28;20025;-20
2021/06/14 01:16:19;;;;;;;4.85;2.58;;;21.10;55.40;;;;;;20831815;28;20033;-21
2021/06/14 01:26:22;;;;;;;4.93;2.97;;;21.10;55.30;;;;;;20818970;28;20037;-20
2021/06/14 01:36:26;;;;;;;4.57;2.17;;;21.10;55.30;;;;;;20832639;28;20034;-20
2021/06/14 01:46:31;;;;;;;5.80;2.67;;;21.10;55.20;;;;;;20818242;28;20024;-19
2021/06/14 01:56:38;;;;;;;6.40;2.80;;;21.10;55.10;;;;;;20831853;28;20039;-20
2021/06/14 02:06:42;;;;;;;6.50;2.65;;;21.10;55.10;;;;;;20854227;28;20033;-19
2021/06/14 02:16:45;;;;;;;3.47;2.50;;;21.00;54.90;;;;;;20867461;28;20108;-19
2021/06/14 02:26:46;;;;;;;5.10;2.50;;;21.10;54.90;;;;;;20870629;28;20481;-19
2021/06/14 02:36:47;;;;;;;10.38;3.35;;;21.00;54.80;;;;;;20814205;28;20409;-20
2021/06/14 02:46:48;;;;;;;5.13;3.15;;;21.00;54.80;;;;;;20818897;28;20021;-19
2021/06/14 02:56:53;;;;;;;4.45;1.95;;;21.00;54.60;;;;;;20817991;28;20043;-19
2021/06/14 03:06:54;;;;;;;5.45;2.80;;;21.00;54.60;;;;;;20832437;28;20523;-19
2021/06/14 03:16:55;;;;;;;4.50;2.67;;;21.00;54.40;;;;;;20830923;28;20093;-20
2021/06/14 03:26:58;;;;;;;5.88;2.67;;;20.90;54.40;;;;;;20826882;28;20592;-19
2021/06/14 03:36:59;;;;;;;3.58;2.42;;;20.90;54.20;;;;;;20829116;28;20056;-20
2021/06/14 03:47:00;;;;;;;5.20;2.33;;;20.90;54.30;;;;;;20826002;28;20120;-19
2021/06/14 03:57:01;;;;;;;5.05;2.55;;;20.90;54.10;;;;;;20825677;28;20060;-18
2021/06/14 04:07:01;;;;;;;5.93;3.13;;;20.80;53.90;;;;;;20829315;28;20053;-19
2021/06/14 04:17:02;;;;;;;5.27;2.73;;;20.90;54.00;;;;;;20823641;28;20021;-19
2021/06/14 04:27:03;;;;;;;5.45;3.50;;;20.80;53.90;;;;;;20824893;28;20554;-20
2021/06/14 04:37:03;;;;;;;3.95;3.00;;;20.90;53.80;;;;;;20823184;28;20057;-19
2021/06/14 04:47:05;;;;;;;5.57;3.03;;;21.00;53.90;;;;;;20822240;28;20033;-20
2021/06/14 04:57:06;;;;;;;4.20;2.13;;;20.90;53.90;;;;;;20820612;28;20064;-19
2021/06/14 05:07:06;;;;;;;6.80;3.00;;;20.90;53.60;;;;;;20799021;28;20033;-19
2021/06/14 05:17:07;;;;;;;6.72;2.95;;;20.90;53.70;;;;;;20829924;28;20402;-19
2021/06/14 05:27:08;;;;;;;10.00;3.60;;;20.80;53.50;;;;;;20794973;28;20036;-20
2021/06/14 05:37:08;;;;;;;5.03;2.90;;;20.90;53.50;;;;;;20845058;28;20043;-20
2021/06/14 05:47:09;;;;;;;5.18;2.13;;;20.90;53.50;;;;;;20824169;28;20057;-19
2021/06/14 05:57:10;;;;;;;5.82;3.05;;;20.90;53.40;;;;;;20850392;28;20048;-19
2021/06/14 06:07:10;;;;;;;9.20;2.97;;;20.90;53.70;;;;;;20805952;28;20504;-19
2021/06/14 06:17:11;;;;;;;19.20;5.45;;;21.00;53.60;;;;;;20872088;28;20044;-20
2021/06/14 06:27:12;;;;;;;20.57;4.17;;;21.00;54.00;;;;;;20879725;28;20489;-20
2021/06/14 06:37:13;;;;;;;16.98;5.47;;;21.00;54.10;;;;;;20877296;28;20475;-20
2021/06/14 06:47:13;;;;;;;26.15;6.00;;;21.00;54.30;;;;;;20855663;28;20071;-20
2021/06/14 06:57:15;;;;;;;16.17;5.38;;;21.10;54.40;;;;;;20861180;23;20409;-20
2021/06/14 07:07:15;;;;;;;22.60;8.02;;;21.10;54.50;;;;;;20862459;28;20029;-20
2021/06/14 07:17:16;;;;;;;24.67;7.30;;;21.10;54.60;;;;;;20901661;28;20513;-19
2021/06/14 07:27:16;;;;;;;16.80;7.80;;;21.10;54.70;;;;;;20921976;28;20385;-19
2021/06/14 07:37:20;;;;;;;21.43;6.67;;;21.10;54.90;;;;;;20899105;28;20093;-19
2021/06/14 07:47:21;;;;;;;13.52;5.97;;;21.10;55.00;;;;;;20911645;28;20462;-19
2021/06/14 07:57:22;;;;;;;17.77;5.63;;;21.10;55.10;;;;;;20888735;28;20026;-18
2021/06/14 08:07:22;;;;;;;12.07;5.93;;;21.00;55.20;;;;;;20874603;28;20463;-20
2021/06/14 08:17:24;;;;;;;13.65;6.20;;;21.10;55.40;;;;;;20880428;28;20024;-18
2021/06/14 08:27:25;;;;;;;12.05;5.13;;;21.10;55.50;;;;;;20860805;28;20039;-19
2021/06/14 08:37:25;;;;;;;16.23;5.75;;;21.10;55.70;;;;;;20866124;28;20033;-19
2021/06/14 08:47:28;;;;;;;16.30;5.22;;;21.10;55.70;;;;;;20858634;28;20132;-19
2021/06/14 08:57:29;;;;;;;11.48;5.45;;;21.10;55.70;;;;;;20869138;28;20021;-19
2021/06/14 09:07:30;;;;;;;10.88;5.20;;;21.10;55.70;;;;;;20870977;28;20040;-20
2021/06/14 09:17:30;;;;;;;10.93;5.18;;;21.20;55.80;;;;;;20863139;28;20128;-15
2021/06/14 09:27:36;;;;;;;12.35;5.15;;;21.10;55.80;;;;;;20854952;28;20036;-15
2021/06/14 09:37:37;;;;;;;11.73;5.47;;;21.10;56.00;;;;;;20861677;28;20029;-15
2021/06/14 09:47:37;;;;;;;8.27;4.70;;;21.10;56.10;;;;;;20855664;28;20163;-15
2021/06/14 09:57:38;;;;;;;11.30;5.07;;;21.10;56.10;;;;;;20866067;28;20036;-18
2021/06/14 10:07:50;;;;;;;10.45;4.20;;;21.10;56.30;;;;;;20845587;28;20282;-15
2021/06/14 10:17:50;;;;;;;7.90;4.05;;;21.20;56.40;;;;;;20885614;28;20025;-17
2021/06/14 10:27:52;;;;;;;7.75;3.97;;;21.20;56.50;;;;;;20904306;28;20075;-14
2021/06/14 10:37:54;;;;;;;10.20;4.15;;;21.20;56.60;;;;;;20915567;28;20413;-17
2021/06/14 10:47:56;;;;;;;8.55;4.15;;;21.20;56.80;;;;;;20903040;28;20032;-16
2021/06/14 10:57:57;;;;;;;6.75;3.53;;;21.20;56.80;;;;;;20894349;28;20127;-17
2021/06/14 11:08:09;;;;;;;7.00;3.78;;;21.30;56.90;;;;;;20911476;28;20033;-16
2021/06/14 11:18:22;;;;;;;7.90;4.35;;;21.30;57.00;;;;;;20880691;28;20397;-16
2021/06/14 11:28:36;;;;;;;6.97;4.30;;;21.30;57.10;;;;;;20889031;28;20039;-17
2021/06/14 11:38:36;;;;;;;6.88;4.93;;;21.30;57.00;;;;;;20909078;28;20025;-16
2021/06/14 11:48:46;;;;;;;7.93;4.07;;;21.40;57.50;;;;;;20909310;28;20047;-16
2021/06/14 11:58:48;;;;;;;8.07;4.53;;;21.50;57.30;;;;;;20892950;28;20021;-16
2021/06/14 12:08:49;;;;;;;10.75;4.45;;;21.50;57.20;;;;;;20906267;28;20059;-16
2021/06/14 12:18:58;;;;;;;6.80;4.63;;;21.40;57.30;;;;;;20906258;28;20078;-16
2021/06/14 12:28:59;;;;;;;6.65;3.97;;;21.40;57.20;;;;;;20903482;28;20455;-16
2021/06/14 12:38:59;;;;;;;5.77;3.93;;;21.40;57.30;;;;;;20872209;28;20083;-16
2021/06/14 12:49:00;;;;;;;5.95;3.60;;;21.40;57.50;;;;;;20847061;28;20460;-19
2021/06/14 12:59:01;;;;;;;11.25;4.03;;;21.50;57.50;;;;;;20861146;23;20041;-19
2021/06/14 13:09:04;;;;;;;15.57;3.67;;;21.40;57.60;;;;;;20847079;28;20040;-20
2021/06/14 13:19:04;;;;;;;14.10;4.78;;;21.50;57.60;;;;;;20889688;28;20550;-19
2021/06/14 13:29:25;;;;;;;16.15;4.68;;;21.50;57.60;;;;;;20887364;28;20148;-17
2021/06/14 13:39:32;;;;;;;8.20;4.05;;;21.50;58.00;;;;;;20847116;28;20131;-19
2021/06/14 13:49:36;;;;;;;10.95;3.85;;;21.50;58.00;;;;;;20855147;28;20083;-19
2021/06/14 13:59:37;;;;;;;23.88;3.90;;;21.50;57.70;;;;;;20852300;28;20116;-19
2021/06/14 14:09:38;;;;;;;8.10;3.80;;;21.50;57.90;;;;;;20854779;28;20033;-19
2021/06/14 14:19:47;;;;;;;7.97;3.50;;;21.60;58.40;;;;;;20855598;28;20108;-21
2021/06/14 14:29:48;;;;;;;15.63;3.83;;;21.50;57.90;;;;;;20868158;28;20052;-21
2021/06/14 14:39:49;;;;;;;10.50;4.23;;;21.50;57.90;;;;;;20876007;28;20032;-21
2021/06/14 14:49:50;;;;;;;7.43;4.00;;;21.60;58.00;;;;;;20869782;28;20468;-21
2021/06/14 14:59:51;;;;;;;12.75;4.25;;;21.60;58.00;;;;;;20849391;28;20053;-21
2021/06/14 15:09:51;;;;;;;10.48;5.07;;;21.60;58.00;;;;;;20855926;28;20378;-21
2021/06/14 15:19:53;;;;;;;13.88;4.78;;;21.60;58.10;;;;;;20864635;28;20024;-19
2021/06/14 15:29:53;;;;;;;9.82;4.78;;;21.70;58.90;;;;;;20863342;28;20025;-19
2021/06/14 15:39:56;;;;;;;10.95;3.88;;;21.70;58.70;;;;;;20870578;28;20037;-18
2021/06/14 15:49:56;;;;;;;8.32;3.85;;;21.70;58.40;;;;;;20864274;28;20444;-19
2021/06/14 15:59:57;;;;;;;8.68;3.03;;;21.80;58.10;;;;;;20881470;28;20037;-19
2021/06/14 16:09:57;;;;;;;7.65;3.85;;;21.80;57.90;;;;;;20902092;28;20036;-19
2021/06/14 16:19:58;;;;;;;8.07;4.13;;;21.90;57.90;;;;;;20905668;28;20048;-20
2021/06/14 16:29:59;;;;;;;7.82;3.92;;;21.80;57.70;;;;;;20897355;28;20048;-19
2021/06/14 16:39:59;;;;;;;6.53;4.03;;;21.80;57.80;;;;;;20890889;28;20029;-18
2021/06/14 16:50:00;;;;;;;8.47;4.17;;;21.90;57.70;;;;;;20903394;28;20028;-20
2021/06/14 17:00:01;;;;;;;9.17;3.17;;;22.00;57.60;;;;;;20896274;28;20397;-20
2021/06/14 17:10:03;;;;;;;4.20;2.60;;;22.00;57.50;;;;;;20902138;28;20208;-20
2021/06/14 17:20:05;;;;;;;5.53;3.22;;;22.10;57.40;;;;;;20883882;28;20108;-19
2021/06/14 17:30:07;;;;;;;7.25;3.40;;;22.20;57.40;;;;;;20888893;28;20028;-18
2021/06/14 17:40:10;;;;;;;10.85;3.70;;;22.20;57.10;;;;;;20903901;28;20025;-18
2021/06/14 17:50:12;;;;;;;9.13;3.13;;;22.10;57.60;;;;;;20908477;28;20111;-18
2021/06/14 18:00:16;;;;;;;15.70;4.18;;;22.10;58.00;;;;;;20903109;28;20399;-18
2021/06/14 18:10:21;;;;;;;9.38;3.35;;;22.20;58.00;;;;;;20895481;28;20485;-19
2021/06/14 18:20:25;;;;;;;8.68;3.03;;;22.20;57.90;;;;;;20875252;28;20502;-19
2021/06/14 18:30:31;;;;;;;12.63;3.45;;;22.10;58.40;;;;;;20844484;28;20440;-18
2021/06/14 18:40:31;;;;;;;11.70;3.88;;;22.00;58.50;;;;;;20854451;28;20112;-20
2021/06/14 18:50:32;;;;;;;11.88;3.97;;;22.00;58.60;;;;;;20870270;28;20520;-20
2021/06/14 19:00:34;;;;;;;12.18;4.68;;;21.90;58.60;;;;;;20877351;28;20041;-20
2021/06/14 19:10:36;;;;;;;7.70;2.97;;;21.90;58.60;;;;;;20873362;28;20497;-18
2021/06/14 19:20:37;;;;;;;7.13;3.60;;;21.80;58.70;;;;;;20826874;28;20084;-20
2021/06/14 19:30:37;;;;;;;10.20;3.55;;;21.80;58.80;;;;;;20865062;28;20382;-21
2021/06/14 19:40:38;;;;;;;5.97;3.77;;;21.80;58.90;;;;;;20873365;28;20490;-19
2021/06/14 19:50:39;;;;;;;11.18;3.55;;;21.80;59.00;;;;;;20870284;28;20091;-20
2021/06/14 20:00:40;;;;;;;5.80;3.58;;;21.70;59.10;;;;;;20867382;28;20040;-20
2021/06/14 20:10:40;;;;;;;6.13;3.40;;;21.70;59.10;;;;;;20836411;28;20091;-19
2021/06/14 20:20:41;;;;;;;7.80;3.88;;;21.70;59.30;;;;;;20851714;28;20029;-19
2021/06/14 20:30:42;;;;;;;9.83;4.53;;;21.70;59.20;;;;;;20860972;28;20029;-18
2021/06/14 20:40:43;;;;;;;7.18;4.25;;;21.60;59.30;;;;;;20867003;28;20040;-20
2021/06/14 20:50:44;;;;;;;7.75;4.00;;;21.60;59.50;;;;;;20863222;28;20044;-20
2021/06/14 21:00:44;;;;;;;9.85;4.95;;;21.60;59.40;;;;;;20858047;28;20045;-21
2021/06/14 21:10:45;;;;;;;8.25;3.40;;;21.70;59.40;;;;;;20845288;28;20022;-19
2021/06/14 21:20:45;;;;;;;5.65;3.88;;;21.60;59.60;;;;;;20885685;28;20036;-20
2021/06/14 21:30:46;;;;;;;5.72;4.28;;;21.60;59.80;;;;;;20892527;28;20124;-19
2021/06/14 21:40:47;;;;;;;6.10;3.63;;;21.60;60.00;;;;;;20903217;28;20389;-19
2021/06/14 21:50:47;;;;;;;7.50;3.85;;;21.60;60.10;;;;;;20891202;28;20074;-19
2021/06/14 22:00:48;;;;;;;7.57;3.67;;;21.60;60.20;;;;;;20898907;28;20383;-19
2021/06/14 22:10:48;;;;;;;5.97;3.65;;;21.60;60.00;;;;;;20899295;28;20059;-19
2021/06/14 22:20:49;;;;;;;12.07;5.15;;;21.50;59.80;;;;;;20847601;28;20033;-19
2021/06/14 22:30:50;;;;;;;9.80;4.45;;;21.50;60.70;;;;;;20848112;28;20022;-19
2021/06/14 22:40:51;;;;;;;6.90;3.47;;;21.50;59.80;;;;;;20873452;28;20041;-19
2021/06/14 22:50:52;;;;;;;9.02;4.35;;;21.60;59.30;;;;;;20915527;28;20024;-18
2021/06/14 23:00:53;;;;;;;10.60;4.97;;;21.50;59.10;;;;;;20917217;28;20074;-19
2021/06/14 23:10:54;;;;;;;10.35;4.85;;;21.50;59.20;;;;;;20916379;28;20514;-18
2021/06/14 23:20:54;;;;;;;6.30;4.03;;;21.50;59.10;;;;;;20913986;28;20058;-19
2021/06/14 23:30:55;;;;;;;11.45;4.75;;;21.50;59.30;;;;;;20883408;28;20440;-18
2021/06/14 23:40:55;;;;;;;5.43;4.22;;;21.50;59.20;;;;;;20899973;28;20090;-20
2021/06/14 23:50:56;;;;;;;13.27;4.23;;;21.50;60.00;;;;;;20895223;28;20513;-20
